CheckWX is a tool to help pilots better visualize weather data.  It is not intended as a substitute for an official pre-flight weather briefing.

01:57:14 UTC

EKRK TAF
Copenhagen Roskilde Airport
Copenhagen, Denmark
TAF EKRK 232313Z 2400/2409 25005KT CAVOK

Feb-24@
00:00 UTC

Feb-24 @ 00:00 UTC

Feb-24@
09:00 UTC

Feb-24 @ 09:00 UTC

TAF EKRK 232313Z 2400/2409 25005KT CAVOK
Wind
  • 250° at 5 KTS
Conditions
No significant weather
Cloud Levels
  • No significant clouds